Time;durP1;ratioP1;P1;durP2;ratioP2;P2;SDS_P1;SDS_P2;PMS_P1;PMS_P2;Temp;Humidity;BMP_temperature;BMP_pressure;BME280_temperature;BME280_humidity;BME280_pressure;Samples;Min_cycle;Max_cycle;Signal;HPM_P1;HPM_P2
2023/06/21 00:01:04;;;;;;;5.32;3.72;;;27.80;70.40;;;;;;6165452;23;20052;-96
2023/06/21 00:03:30;;;;;;;9.52;4.43;;;27.80;70.50;;;;;;6160871;23;20024;-94
2023/06/21 00:05:56;;;;;;;4.82;4.05;;;27.80;70.30;;;;;;6148722;23;20050;-92
2023/06/21 00:08:22;;;;;;;4.38;3.85;;;27.70;70.20;;;;;;6135614;23;20375;-95
2023/06/21 00:10:49;;;;;;;5.63;3.78;;;27.70;70.30;;;;;;6138115;23;20007;-95
2023/06/21 00:13:15;;;;;;;6.68;3.67;;;27.70;70.60;;;;;;6138299;23;19998;-96
2023/06/21 00:15:40;;;;;;;5.88;4.10;;;27.70;70.80;;;;;;6136591;23;20041;-95
2023/06/21 00:18:13;;;;;;;6.35;4.63;;;27.70;71.20;;;;;;6138574;23;19998;-94
2023/06/21 00:20:44;;;;;;;7.88;4.32;;;27.60;71.30;;;;;;6117023;23;20013;-94
2023/06/21 00:23:36;;;;;;;7.70;4.30;;;27.60;71.50;;;;;;6141206;23;20005;-96
2023/06/21 00:26:03;;;;;;;7.15;4.30;;;27.50;71.50;;;;;;6114381;23;20006;-95
2023/06/21 00:28:31;;;;;;;5.75;4.45;;;27.50;71.90;;;;;;6141956;23;19997;-94
2023/06/21 00:30:58;;;;;;;6.10;4.63;;;27.40;72.30;;;;;;6114990;23;20065;-93
2023/06/21 00:33:25;;;;;;;6.47;4.03;;;27.40;72.80;;;;;;6142086;23;20022;-94
2023/06/21 00:35:51;;;;;;;8.98;4.50;;;27.40;73.20;;;;;;6142037;23;20006;-93
2023/06/21 00:38:17;;;;;;;5.90;4.28;;;27.30;73.60;;;;;;6137561;23;20002;-93
2023/06/21 00:40:49;;;;;;;6.18;4.18;;;27.30;74.10;;;;;;6136793;23;20006;-96
2023/06/21 00:43:16;;;;;;;6.57;4.45;;;27.30;74.30;;;;;;6134981;23;20009;-93
2023/06/21 00:45:48;;;;;;;5.50;3.97;;;27.20;74.50;;;;;;6083562;23;20113;-95
2023/06/21 00:48:15;;;;;;;6.40;4.25;;;27.20;75.00;;;;;;6107279;23;20006;-96
2023/06/21 00:50:41;;;;;;;6.85;4.43;;;27.20;75.60;;;;;;6082772;23;20061;-96
2023/06/21 00:53:10;;;;;;;6.32;4.65;;;27.20;75.70;;;;;;6133407;23;20073;-95
2023/06/21 00:55:35;;;;;;;6.40;5.40;;;27.20;76.60;;;;;;6135139;23;20432;-95
2023/06/21 00:58:01;;;;;;;7.57;5.55;;;27.20;77.60;;;;;;6130055;23;19998;-96
2023/06/21 01:00:27;;;;;;;6.55;5.30;;;27.10;77.70;;;;;;6130421;23;20335;-95
2023/06/21 01:02:57;;;;;;;6.65;5.95;;;27.10;78.20;;;;;;6104078;23;20097;-96
2023/06/21 01:05:25;;;;;;;8.00;5.90;;;27.10;78.90;;;;;;6130685;23;20014;-93
2023/06/21 01:08:08;;;;;;;7.03;5.82;;;27.10;79.50;;;;;;6107141;23;20006;-93
2023/06/21 01:11:34;;;;;;;7.72;6.50;;;27.10;80.00;;;;;;6134959;23;20010;-96
2023/06/21 01:14:18;;;;;;;11.43;7.68;;;27.10;80.60;;;;;;6099662;23;20057;-96
2023/06/21 01:16:46;;;;;;;8.25;6.88;;;27.10;81.50;;;;;;6131160;23;20002;-96
2023/06/21 01:19:33;;;;;;;8.02;7.22;;;27.10;81.30;;;;;;6105916;23;20060;-95
2023/06/21 01:22:06;;;;;;;7.32;6.60;;;27.00;82.00;;;;;;6133259;23;20028;-96
2023/06/21 01:25:20;;;;;;;10.85;9.52;;;27.00;82.10;;;;;;6132516;23;20037;-95
2023/06/21 01:28:00;;;;;;;9.57;8.32;;;27.00;82.80;;;;;;6096739;23;20073;-92
2023/06/21 01:30:28;;;;;;;10.85;7.72;;;26.90;83.60;;;;;;6125365;23;20068;-90
2023/06/21 01:32:56;;;;;;;12.32;8.32;;;26.90;83.50;;;;;;6125073;23;19998;-93
2023/06/21 01:35:24;;;;;;;8.85;7.95;;;26.80;83.90;;;;;;6125154;23;20081;-92
2023/06/21 01:37:50;;;;;;;9.50;8.48;;;26.80;84.60;;;;;;6125211;23;20412;-93
2023/06/21 01:40:19;;;;;;;9.55;8.55;;;26.80;85.00;;;;;;6125444;23;20005;-92
2023/06/21 01:42:45;;;;;;;9.53;7.83;;;26.70;85.40;;;;;;6126037;23;20059;-92
2023/06/21 01:45:11;;;;;;;9.23;7.57;;;26.80;85.70;;;;;;6100635;23;20353;-93
2023/06/21 01:47:39;;;;;;;9.73;7.60;;;26.70;85.90;;;;;;6124925;23;20012;-91
2023/06/21 01:50:08;;;;;;;13.30;8.80;;;26.70;86.10;;;;;;6125526;23;20006;-93
2023/06/21 01:52:35;;;;;;;10.43;8.07;;;26.70;86.20;;;;;;6126041;23;20036;-90
2023/06/21 01:55:01;;;;;;;9.20;8.07;;;26.70;86.30;;;;;;6125227;23;19998;-92
2023/06/21 01:57:29;;;;;;;9.38;8.48;;;26.60;86.60;;;;;;6124412;23;20010;-92
2023/06/21 01:59:55;;;;;;;9.63;8.63;;;26.70;86.90;;;;;;6125674;23;20073;-93
2023/06/21 02:02:22;;;;;;;8.70;7.57;;;26.60;87.00;;;;;;6126111;23;20030;-93
2023/06/21 02:04:49;;;;;;;9.48;7.82;;;26.60;87.30;;;;;;6099714;23;20026;-94
2023/06/21 02:07:16;;;;;;;9.57;8.27;;;26.60;87.50;;;;;;6126883;23;20364;-93
2023/06/21 02:09:44;;;;;;;9.18;8.23;;;26.70;87.50;;;;;;6125694;23;20010;-92
2023/06/21 02:12:10;;;;;;;8.73;7.72;;;26.60;87.40;;;;;;6100003;23;20536;-91
2023/06/21 02:14:37;;;;;;;9.60;8.45;;;26.60;87.70;;;;;;6099251;23;20432;-92
2023/06/21 02:17:04;;;;;;;11.45;7.70;;;26.60;87.80;;;;;;6100062;23;20428;-92
2023/06/21 02:19:30;;;;;;;10.35;7.60;;;26.60;87.90;;;;;;6125724;23;20360;-90
2023/06/21 02:21:57;;;;;;;9.90;8.70;;;26.50;88.00;;;;;;6100256;23;20010;-91
2023/06/21 02:24:22;;;;;;;10.75;8.60;;;26.50;88.00;;;;;;6100025;23;20136;-92
2023/06/21 02:26:49;;;;;;;8.57;7.72;;;26.50;88.10;;;;;;6126406;23;20073;-92
2023/06/21 02:29:17;;;;;;;9.63;8.25;;;26.50;88.80;;;;;;6125851;23;20076;-91
2023/06/21 02:31:42;;;;;;;11.13;10.02;;;26.50;88.40;;;;;;6099544;23;20052;-92
2023/06/21 02:34:10;;;;;;;13.20;10.60;;;26.40;89.20;;;;;;6126554;23;20428;-91
2023/06/21 02:36:38;;;;;;;10.05;8.73;;;26.40;89.80;;;;;;6101083;23;20045;-92
2023/06/21 02:39:06;;;;;;;11.27;9.55;;;26.30;89.60;;;;;;6126676;23;20002;-92
2023/06/21 02:41:31;;;;;;;17.83;15.73;;;26.30;90.20;;;;;;6127155;23;20077;-92
2023/06/21 02:44:00;;;;;;;10.45;9.45;;;26.20;90.80;;;;;;6100458;23;20014;-92
2023/06/21 02:46:26;;;;;;;12.10;9.82;;;26.10;90.60;;;;;;6101253;23;20006;-92
2023/06/21 02:48:52;;;;;;;12.68;10.98;;;26.00;91.00;;;;;;6126992;23;20331;-93
2023/06/21 02:51:24;;;;;;;10.75;9.23;;;25.90;91.20;;;;;;6129174;23;20009;-92
2023/06/21 02:53:50;;;;;;;10.63;8.57;;;25.90;91.10;;;;;;6103085;23;20165;-92
2023/06/21 02:56:16;;;;;;;16.65;14.95;;;25.90;91.40;;;;;;6135395;23;20006;-92
2023/06/21 02:58:45;;;;;;;16.08;14.40;;;25.80;92.00;;;;;;6127117;23;20017;-92
2023/06/21 03:01:13;;;;;;;16.15;11.82;;;25.70;92.10;;;;;;6127800;23;20335;-92
2023/06/21 03:03:41;;;;;;;13.73;10.60;;;25.70;92.10;;;;;;6127155;23;20428;-92
2023/06/21 03:06:07;;;;;;;11.30;10.20;;;25.60;92.00;;;;;;6127428;23;20026;-91
2023/06/21 03:08:35;;;;;;;12.27;10.98;;;25.60;92.00;;;;;;6077958;23;20017;-91
2023/06/21 03:11:01;;;;;;;9.50;8.50;;;25.60;91.90;;;;;;6101349;23;20063;-92
2023/06/21 03:13:26;;;;;;;14.10;12.57;;;25.60;92.00;;;;;;6126886;23;20002;-92
2023/06/21 03:15:52;;;;;;;11.40;10.25;;;25.60;92.30;;;;;;6100721;23;20040;-92
2023/06/21 03:18:18;;;;;;;12.98;11.35;;;25.60;92.30;;;;;;6101205;23;20009;-92
2023/06/21 03:20:44;;;;;;;14.55;12.90;;;25.60;92.00;;;;;;6126544;23;20006;-92
2023/06/21 03:23:09;;;;;;;12.98;11.52;;;25.60;92.40;;;;;;6126723;23;19998;-91
2023/06/21 03:25:35;;;;;;;12.60;11.25;;;25.60;92.30;;;;;;6126334;23;20010;-92
2023/06/21 03:28:01;;;;;;;20.75;17.83;;;25.50;92.40;;;;;;6126726;23;20006;-91
2023/06/21 03:30:27;;;;;;;15.02;13.43;;;25.50;92.50;;;;;;6126149;23;20012;-91
2023/06/21 03:32:52;;;;;;;19.75;15.45;;;25.50;92.30;;;;;;6126217;23;20320;-92
2023/06/21 03:35:18;;;;;;;14.57;12.82;;;25.50;92.40;;;;;;6126199;23;20005;-92
2023/06/21 03:37:46;;;;;;;13.40;12.00;;;25.60;92.40;;;;;;6124846;23;20080;-92
2023/06/21 03:40:13;;;;;;;15.70;14.10;;;25.60;92.40;;;;;;6126002;23;20439;-93
2023/06/21 03:42:43;;;;;;;20.13;14.65;;;25.60;92.30;;;;;;6125343;23;19998;-91
2023/06/21 03:45:09;;;;;;;16.38;14.68;;;25.60;92.50;;;;;;6125079;23;20014;-90
2023/06/21 03:47:40;;;;;;;20.50;18.42;;;25.50;92.60;;;;;;6126270;23;19998;-91
2023/06/21 03:50:07;;;;;;;18.45;16.48;;;25.50;92.60;;;;;;6099648;23;20006;-93
2023/06/21 03:52:32;;;;;;;33.78;28.85;;;25.50;92.60;;;;;;6100491;23;20002;-91
2023/06/21 03:54:58;;;;;;;24.27;21.67;;;25.40;93.00;;;;;;6126777;23;20002;-90
2023/06/21 03:57:24;;;;;;;25.45;22.67;;;25.40;93.20;;;;;;6126628;23;20545;-92
2023/06/21 03:59:49;;;;;;;17.42;15.40;;;25.30;93.30;;;;;;6125850;23;20029;-91
2023/06/21 04:02:15;;;;;;;19.13;15.88;;;25.30;93.20;;;;;;6100855;23;20361;-92
2023/06/21 04:04:42;;;;;;;19.45;17.55;;;25.30;93.10;;;;;;6126093;23;20017;-92
2023/06/21 04:07:07;;;;;;;33.55;29.88;;;25.30;93.00;;;;;;6126184;23;20041;-92
2023/06/21 04:09:34;;;;;;;25.25;22.52;;;25.30;93.50;;;;;;6130744;23;19997;-91
2023/06/21 04:11:59;;;;;;;20.45;18.35;;;25.20;93.60;;;;;;6129659;23;20002;-90
2023/06/21 04:14:26;;;;;;;33.05;29.45;;;25.10;93.70;;;;;;6126366;23;20065;-91
2023/06/21 04:16:53;;;;;;;27.40;21.40;;;25.10;93.80;;;;;;6101046;23;20061;-89
2023/06/21 04:19:18;;;;;;;19.55;17.27;;;25.10;93.90;;;;;;6126187;23;20030;-90
2023/06/21 04:21:45;;;;;;;21.42;19.02;;;25.10;93.80;;;;;;6128499;23;19998;-90
2023/06/21 04:24:12;;;;;;;21.88;18.25;;;25.10;93.80;;;;;;6100692;23;20089;-90
2023/06/21 04:26:38;;;;;;;22.10;19.80;;;25.10;93.60;;;;;;6130137;23;20083;-90
2023/06/21 04:29:04;;;;;;;18.13;16.23;;;25.10;93.90;;;;;;6099540;23;20006;-90
2023/06/21 04:31:29;;;;;;;17.73;16.00;;;25.20;93.90;;;;;;6120806;23;20002;-89
2023/06/21 04:33:55;;;;;;;17.95;15.55;;;25.20;93.70;;;;;;6121305;23;20009;-91
2023/06/21 04:36:22;;;;;;;21.55;19.25;;;25.20;93.80;;;;;;6123866;23;19998;-90
2023/06/21 04:38:48;;;;;;;24.40;19.63;;;25.20;93.80;;;;;;6101191;23;20010;-89
2023/06/21 04:41:16;;;;;;;20.50;18.33;;;25.20;93.70;;;;;;6124106;23;20452;-90
2023/06/21 04:43:42;;;;;;;25.90;23.13;;;25.30;93.60;;;;;;6124030;23;20006;-89
2023/06/21 04:46:08;;;;;;;20.70;17.52;;;25.30;94.00;;;;;;6124535;23;20009;-89
2023/06/21 04:48:33;;;;;;;20.40;17.20;;;25.30;93.90;;;;;;6125589;23;20076;-88
2023/06/21 04:51:00;;;;;;;27.75;24.75;;;25.40;93.70;;;;;;6122796;23;20348;-91
2023/06/21 04:53:30;;;;;;;20.85;18.63;;;25.30;94.00;;;;;;6125197;23;20010;-89
2023/06/21 04:55:57;;;;;;;25.90;23.27;;;25.30;93.80;;;;;;6125751;23;20006;-89
2023/06/21 04:58:26;;;;;;;22.33;19.67;;;25.40;93.80;;;;;;6124489;23;20008;-90
2023/06/21 05:00:51;;;;;;;20.20;18.00;;;25.40;93.90;;;;;;6123811;23;20029;-91
2023/06/21 05:03:17;;;;;;;25.52;21.52;;;25.40;93.80;;;;;;6122658;23;20002;-91
2023/06/21 05:05:43;;;;;;;20.70;17.60;;;25.40;94.10;;;;;;6124983;23;20018;-91
2023/06/21 05:08:09;;;;;;;23.58;20.33;;;25.40;93.80;;;;;;6126036;23;20002;-91
2023/06/21 05:10:34;;;;;;;22.88;18.73;;;25.30;94.00;;;;;;6125494;23;20057;-91
2023/06/21 05:13:03;;;;;;;22.73;20.25;;;25.40;94.00;;;;;;6125207;23;20481;-90
2023/06/21 05:15:30;;;;;;;21.35;19.15;;;25.40;93.90;;;;;;6126501;23;19998;-90
2023/06/21 05:17:56;;;;;;;19.92;17.88;;;25.40;93.90;;;;;;6102363;23;20014;-89
2023/06/21 05:20:24;;;;;;;18.70;16.15;;;25.50;94.00;;;;;;6101491;23;20009;-91
2023/06/21 05:22:51;;;;;;;21.52;18.83;;;25.50;94.00;;;;;;6127861;23;20072;-89
2023/06/21 05:25:18;;;;;;;18.42;16.42;;;25.50;94.00;;;;;;6101989;23;20021;-89
2023/06/21 05:27:44;;;;;;;17.23;15.45;;;25.60;93.90;;;;;;6127956;23;20001;-91
2023/06/21 05:30:12;;;;;;;21.45;19.08;;;25.70;93.90;;;;;;6128646;23;20062;-91
2023/06/21 05:32:38;;;;;;;36.70;17.98;;;25.70;94.00;;;;;;6130484;23;20025;-89
2023/06/21 05:35:05;;;;;;;17.20;15.00;;;25.70;94.10;;;;;;6126884;23;20013;-88
2023/06/21 05:37:31;;;;;;;21.42;19.23;;;25.70;94.00;;;;;;6126003;23;20365;-89
2023/06/21 05:40:00;;;;;;;20.98;18.58;;;25.70;93.90;;;;;;6124923;23;20092;-88
2023/06/21 05:42:27;;;;;;;23.10;20.48;;;25.70;94.00;;;;;;6125013;23;20491;-89
2023/06/21 05:44:53;;;;;;;23.70;21.20;;;25.80;94.00;;;;;;6125936;23;20065;-89
2023/06/21 05:47:18;;;;;;;20.60;17.55;;;25.80;93.90;;;;;;6126587;23;20436;-88
2023/06/21 05:49:49;;;;;;;20.55;17.88;;;25.90;93.80;;;;;;6126117;23;20002;-89
2023/06/21 05:52:19;;;;;;;20.83;17.35;;;25.90;93.80;;;;;;6141281;23;20017;-87
2023/06/21 05:54:47;;;;;;;20.08;17.52;;;25.90;93.60;;;;;;6147960;23;19986;-89
2023/06/21 05:57:31;;;;;;;19.17;17.10;;;26.00;93.70;;;;;;6149319;23;20020;-92
2023/06/21 06:00:41;;;;;;;17.35;15.23;;;26.00;93.60;;;;;;6128356;23;20440;-95
2023/06/21 06:03:08;;;;;;;31.23;25.13;;;26.00;93.50;;;;;;6135454;23;19983;-81
2023/06/21 06:05:34;;;;;;;27.60;22.17;;;26.00;93.70;;;;;;6124275;23;20010;-82
2023/06/21 06:08:00;;;;;;;29.90;24.13;;;26.00;93.70;;;;;;6126530;23;20002;-82
2023/06/21 06:10:26;;;;;;;20.67;17.85;;;26.00;93.90;;;;;;6125867;23;20010;-81
2023/06/21 06:12:52;;;;;;;28.33;24.55;;;26.00;93.90;;;;;;6126463;23;19998;-82
2023/06/21 06:15:18;;;;;;;17.73;15.88;;;26.00;94.00;;;;;;6100377;23;20010;-82
2023/06/21 06:17:44;;;;;;;21.27;18.27;;;25.90;94.20;;;;;;6127820;23;20006;-82
2023/06/21 06:20:10;;;;;;;24.38;21.67;;;25.90;94.20;;;;;;6127712;23;20076;-81
2023/06/21 06:22:36;;;;;;;22.42;18.50;;;26.00;94.40;;;;;;6125606;23;20010;-81
2023/06/21 06:25:02;;;;;;;28.58;23.05;;;26.00;94.20;;;;;;6127856;23;20016;-81
2023/06/21 06:27:28;;;;;;;27.52;24.55;;;26.10;94.20;;;;;;6101479;23;20049;-81
2023/06/21 06:29:54;;;;;;;19.45;17.40;;;26.10;94.00;;;;;;6127774;23;20002;-81
2023/06/21 06:32:20;;;;;;;14.95;12.95;;;26.20;94.00;;;;;;6101437;23;20022;-81
2023/06/21 06:34:45;;;;;;;14.98;13.38;;;26.30;93.90;;;;;;6127640;23;20009;-81
2023/06/21 06:37:11;;;;;;;15.40;13.13;;;26.40;93.80;;;;;;6127240;23;20391;-81
2023/06/21 06:39:37;;;;;;;18.70;15.85;;;26.40;93.70;;;;;;6128252;23;20013;-81
2023/06/21 06:42:03;;;;;;;17.38;15.45;;;26.40;93.70;;;;;;6127761;23;20340;-81
2023/06/21 06:44:28;;;;;;;24.52;19.95;;;26.50;93.60;;;;;;6127324;23;20484;-82
2023/06/21 06:46:54;;;;;;;13.00;11.48;;;26.50;93.70;;;;;;6127624;23;20486;-81
2023/06/21 06:49:20;;;;;;;15.80;13.85;;;26.60;93.60;;;;;;6127442;23;19998;-81
2023/06/21 06:51:46;;;;;;;12.85;11.45;;;26.60;93.40;;;;;;6127841;23;19998;-81
2023/06/21 06:54:11;;;;;;;13.55;11.93;;;26.60;93.30;;;;;;6127451;23;20010;-82
2023/06/21 06:56:37;;;;;;;23.63;18.67;;;26.60;93.30;;;;;;6127055;23;20348;-82
2023/06/21 06:59:03;;;;;;;18.08;16.17;;;26.60;93.20;;;;;;6127279;23;20408;-81
2023/06/21 07:01:28;;;;;;;20.25;16.75;;;26.60;93.20;;;;;;6127460;23;20002;-81
2023/06/21 07:03:54;;;;;;;22.85;17.75;;;26.60;93.30;;;;;;6127284;23;20358;-81
2023/06/21 07:06:20;;;;;;;13.38;11.48;;;26.60;93.10;;;;;;6127362;23;20018;-81
2023/06/21 07:08:46;;;;;;;12.32;10.23;;;26.70;93.20;;;;;;6126948;23;20093;-81
2023/06/21 07:11:12;;;;;;;12.43;11.13;;;26.80;93.00;;;;;;6127315;23;20315;-82
2023/06/21 07:13:38;;;;;;;12.60;11.32;;;26.90;92.90;;;;;;6127317;23;20005;-82
2023/06/21 07:16:04;;;;;;;12.73;11.43;;;26.90;92.40;;;;;;6126038;23;20002;-82
2023/06/21 07:18:29;;;;;;;13.32;10.50;;;27.00;92.50;;;;;;6126165;23;20432;-82
2023/06/21 07:20:55;;;;;;;9.27;8.25;;;27.10;92.40;;;;;;6126291;23;20008;-82
2023/06/21 07:23:21;;;;;;;16.05;13.43;;;27.20;92.30;;;;;;6126911;23;19998;-82
2023/06/21 07:25:46;;;;;;;10.77;9.38;;;27.30;91.80;;;;;;6114975;23;20028;-82
2023/06/21 07:28:12;;;;;;;10.20;9.05;;;27.30;91.80;;;;;;6126979;23;20002;-82
2023/06/21 07:30:38;;;;;;;11.63;10.40;;;27.40;91.60;;;;;;6127146;23;20082;-82
2023/06/21 07:33:05;;;;;;;11.52;8.27;;;27.40;91.80;;;;;;6127089;23;20328;-82
2023/06/21 07:35:30;;;;;;;11.02;9.50;;;27.40;91.70;;;;;;6126924;23;20006;-82
2023/06/21 07:37:56;;;;;;;7.35;6.65;;;27.50;91.60;;;;;;6126788;23;20307;-82
2023/06/21 07:40:21;;;;;;;7.32;6.10;;;27.60;91.50;;;;;;6127039;23;20010;-82
2023/06/21 07:42:48;;;;;;;8.73;6.28;;;27.60;91.30;;;;;;6126983;23;20033;-82
2023/06/21 07:45:14;;;;;;;6.85;5.00;;;27.70;90.90;;;;;;6100957;23;20006;-82
2023/06/21 07:47:41;;;;;;;6.20;4.82;;;27.80;90.90;;;;;;6123844;23;20006;-82
2023/06/21 07:50:07;;;;;;;10.38;9.30;;;27.90;90.80;;;;;;6125816;23;20424;-82
2023/06/21 07:52:33;;;;;;;9.48;7.85;;;27.90;89.60;;;;;;6125274;23;20002;-82
2023/06/21 07:54:59;;;;;;;6.10;5.35;;;27.90;89.60;;;;;;6126537;23;20044;-82
2023/06/21 07:57:25;;;;;;;5.78;4.75;;;28.00;89.70;;;;;;6126400;23;20033;-82
2023/06/21 07:59:50;;;;;;;9.23;8.13;;;28.10;89.80;;;;;;6126350;23;20432;-82
2023/06/21 08:02:18;;;;;;;6.28;5.28;;;28.10;88.90;;;;;;6126057;23;20012;-82
2023/06/21 08:04:45;;;;;;;5.45;4.43;;;28.10;88.10;;;;;;6125731;23;20017;-82
2023/06/21 08:07:12;;;;;;;4.05;3.72;;;28.20;88.70;;;;;;6126067;23;20443;-82
2023/06/21 08:09:38;;;;;;;10.20;4.95;;;28.30;88.90;;;;;;6126278;23;19997;-82
2023/06/21 08:12:04;;;;;;;5.40;4.90;;;28.40;88.90;;;;;;6126452;23;20332;-82
2023/06/21 08:14:30;;;;;;;7.78;5.53;;;28.50;88.60;;;;;;6126450;23;20012;-82
2023/06/21 08:16:55;;;;;;;5.82;4.75;;;28.60;88.20;;;;;;6125978;23;20392;-82
2023/06/21 08:19:21;;;;;;;9.60;6.85;;;28.60;88.00;;;;;;6126283;23;20034;-82
2023/06/21 08:21:47;;;;;;;5.72;5.22;;;28.60;87.10;;;;;;6126592;23;20030;-82
2023/06/21 08:24:13;;;;;;;6.25;4.70;;;28.70;87.30;;;;;;6126391;23;20006;-82
2023/06/21 08:26:39;;;;;;;5.43;4.90;;;28.70;87.60;;;;;;6126374;23;19998;-82
2023/06/21 08:29:04;;;;;;;7.25;4.38;;;28.80;87.50;;;;;;6125812;23;20009;-82
2023/06/21 08:31:30;;;;;;;9.25;5.90;;;28.90;86.90;;;;;;6125805;23;20121;-82
2023/06/21 08:33:56;;;;;;;5.78;4.40;;;28.90;86.20;;;;;;6126006;23;20006;-82
2023/06/21 08:36:22;;;;;;;7.30;4.40;;;29.00;86.30;;;;;;6126266;23;20044;-82
2023/06/21 08:38:48;;;;;;;5.50;4.53;;;29.10;86.80;;;;;;6126363;23;20032;-82
2023/06/21 08:41:14;;;;;;;7.68;6.55;;;29.10;86.60;;;;;;6125821;23;20002;-82
2023/06/21 08:43:39;;;;;;;7.90;4.55;;;29.20;85.60;;;;;;6125432;23;20313;-82
2023/06/21 08:46:06;;;;;;;8.10;5.30;;;29.20;86.20;;;;;;6126380;23;20114;-82
2023/06/21 08:48:33;;;;;;;7.65;5.28;;;29.30;86.00;;;;;;6126181;23;20582;-81
2023/06/21 08:51:00;;;;;;;5.97;5.38;;;29.40;85.90;;;;;;6126364;23;20026;-82
2023/06/21 08:53:33;;;;;;;4.97;4.47;;;29.50;85.90;;;;;;6099678;23;20371;-82
2023/06/21 08:56:02;;;;;;;5.88;5.28;;;29.50;86.00;;;;;;6100082;23;20013;-82
2023/06/21 08:58:35;;;;;;;6.07;5.35;;;29.60;86.30;;;;;;6125691;23;20002;-82
2023/06/21 09:01:03;;;;;;;5.93;4.90;;;29.70;87.00;;;;;;6125877;23;20069;-82
2023/06/21 09:03:41;;;;;;;6.35;5.68;;;29.80;87.00;;;;;;6124985;23;20086;-83
2023/06/21 09:06:10;;;;;;;7.50;5.43;;;29.90;86.70;;;;;;6125355;23;20002;-82
2023/06/21 09:08:39;;;;;;;6.00;5.40;;;29.90;86.40;;;;;;6099764;23;20006;-83
2023/06/21 09:11:07;;;;;;;6.88;5.10;;;30.00;86.60;;;;;;6125261;23;20009;-86
2023/06/21 09:13:34;;;;;;;10.00;5.70;;;30.10;86.60;;;;;;6098998;23;20049;-83
2023/06/21 09:16:02;;;;;;;5.95;5.35;;;30.10;86.30;;;;;;6097991;23;20017;-83
2023/06/21 09:18:35;;;;;;;6.53;5.32;;;30.20;86.00;;;;;;6125241;23;20025;-83
2023/06/21 09:21:02;;;;;;;5.53;5.03;;;30.20;86.10;;;;;;6099262;23;20005;-83
2023/06/21 09:23:28;;;;;;;6.68;5.65;;;30.30;86.70;;;;;;6125010;23;20005;-83
2023/06/21 09:25:55;;;;;;;6.68;5.45;;;30.40;85.80;;;;;;6125066;23;20002;-83
2023/06/21 09:28:20;;;;;;;8.07;5.00;;;30.40;85.90;;;;;;6095944;23;20030;-83
2023/06/21 09:30:46;;;;;;;6.40;5.80;;;30.40;86.00;;;;;;6125297;23;20049;-83
2023/06/21 09:33:12;;;;;;;9.40;6.10;;;30.50;85.50;;;;;;6099604;23;20017;-82
2023/06/21 09:35:38;;;;;;;7.65;6.70;;;30.60;85.50;;;;;;6125690;23;20354;-82
2023/06/21 09:38:24;;;;;;;7.07;5.63;;;30.60;85.20;;;;;;6125723;23;20002;-82
2023/06/21 09:40:49;;;;;;;6.68;5.38;;;30.60;85.70;;;;;;6124441;23;20594;-82
2023/06/21 09:43:16;;;;;;;7.05;5.07;;;30.70;85.30;;;;;;6099720;23;20057;-82
2023/06/21 09:45:42;;;;;;;8.93;5.80;;;30.80;84.90;;;;;;6125059;23;20009;-82
2023/06/21 09:48:14;;;;;;;7.88;6.13;;;30.90;84.90;;;;;;6122220;23;20084;-83
2023/06/21 09:50:44;;;;;;;6.20;5.55;;;31.00;84.10;;;;;;6122610;23;20006;-83
2023/06/21 09:53:13;;;;;;;5.88;5.28;;;31.10;84.10;;;;;;6122706;23;20005;-83
2023/06/21 09:55:44;;;;;;;8.73;7.10;;;31.20;84.00;;;;;;6121855;23;20002;-82
2023/06/21 09:58:10;;;;;;;11.68;7.68;;;31.20;83.20;;;;;;6124230;23;20014;-82
2023/06/21 10:00:36;;;;;;;10.80;6.90;;;31.20;82.20;;;;;;6097608;23;20010;-82
2023/06/21 10:03:03;;;;;;;7.93;6.15;;;31.20;82.20;;;;;;6120303;23;20002;-82
2023/06/21 10:05:29;;;;;;;19.25;8.52;;;31.30;82.30;;;;;;6096332;23;20014;-82
2023/06/21 10:07:54;;;;;;;10.00;7.32;;;31.30;81.90;;;;;;6125208;23;20416;-82
2023/06/21 10:10:20;;;;;;;7.82;5.75;;;31.40;81.60;;;;;;6124096;23;20114;-82
2023/06/21 10:12:53;;;;;;;9.55;6.25;;;31.40;82.00;;;;;;6123872;23;20325;-82
2023/06/21 10:15:19;;;;;;;16.92;7.93;;;31.50;81.60;;;;;;6123127;23;20013;-82
2023/06/21 10:17:48;;;;;;;7.30;6.38;;;31.60;81.10;;;;;;6124694;23;20002;-87
2023/06/21 10:20:14;;;;;;;10.35;6.53;;;31.70;80.70;;;;;;6123737;23;20439;-81
2023/06/21 10:22:44;;;;;;;11.65;7.50;;;31.80;80.40;;;;;;6122431;23;20014;-81
2023/06/21 10:25:11;;;;;;;8.02;6.15;;;31.80;80.00;;;;;;6124194;23;20012;-81
2023/06/21 10:27:39;;;;;;;7.60;5.03;;;31.90;80.50;;;;;;6124826;23;20305;-82
2023/06/21 10:30:07;;;;;;;7.40;6.15;;;32.00;80.90;;;;;;6124854;23;20416;-82
2023/06/21 10:32:34;;;;;;;10.52;6.38;;;32.20;80.80;;;;;;6122784;23;20827;-82
2023/06/21 10:35:08;;;;;;;9.02;6.03;;;32.30;80.30;;;;;;6124578;23;20002;-82
2023/06/21 10:37:48;;;;;;;8.02;7.10;;;32.40;79.90;;;;;;6122356;23;20439;-81
2023/06/21 10:40:15;;;;;;;9.50;6.10;;;32.50;78.80;;;;;;6097882;23;20021;-81
2023/06/21 10:42:41;;;;;;;8.05;7.20;;;32.60;79.10;;;;;;6097912;23;20010;-81
2023/06/21 10:45:10;;;;;;;7.07;5.65;;;32.70;78.90;;;;;;6123380;23;20336;-82
2023/06/21 10:47:37;;;;;;;8.63;5.78;;;32.70;78.70;;;;;;6124511;23;20002;-82
2023/06/21 10:50:03;;;;;;;7.85;6.18;;;32.80;78.70;;;;;;6124516;23;20009;-82
2023/06/21 10:52:30;;;;;;;12.88;5.93;;;32.90;78.30;;;;;;6123815;23;20080;-82
2023/06/21 10:55:00;;;;;;;10.38;6.15;;;33.00;77.80;;;;;;6125646;23;20014;-83
2023/06/21 10:57:27;;;;;;;11.63;7.32;;;33.20;77.60;;;;;;6125586;23;20006;-84
2023/06/21 10:59:55;;;;;;;7.88;6.15;;;33.30;76.70;;;;;;6127329;23;20375;-83
2023/06/21 11:02:24;;;;;;;6.72;4.97;;;33.40;76.50;;;;;;6127160;23;20010;-83
2023/06/21 11:05:13;;;;;;;9.32;6.22;;;33.40;76.50;;;;;;6125359;23;20014;-83
2023/06/21 11:08:01;;;;;;;7.38;5.93;;;33.60;76.60;;;;;;6100363;23;20013;-83
2023/06/21 11:10:31;;;;;;;10.27;5.90;;;33.70;76.40;;;;;;6123483;23;20333;-89
2023/06/21 11:12:57;;;;;;;8.93;5.82;;;33.90;76.10;;;;;;6126591;23;20022;-86
2023/06/21 11:15:26;;;;;;;6.65;5.53;;;34.00;75.40;;;;;;6126318;23;20064;-83
2023/06/21 11:18:05;;;;;;;8.83;6.87;;;34.10;75.10;;;;;;6125644;23;20009;-83
2023/06/21 11:20:42;;;;;;;7.60;6.68;;;34.20;74.00;;;;;;6126681;23;20001;-83
2023/06/21 11:23:08;;;;;;;6.72;6.13;;;34.30;73.70;;;;;;6126811;23;20428;-81
2023/06/21 11:25:48;;;;;;;7.05;5.93;;;34.40;72.70;;;;;;6126960;23;20285;-81
2023/06/21 11:28:19;;;;;;;5.53;4.93;;;34.50;72.40;;;;;;6124281;23;20452;-81
2023/06/21 11:31:03;;;;;;;11.77;6.78;;;34.70;72.40;;;;;;6122075;23;20002;-84
2023/06/21 11:33:31;;;;;;;8.77;6.53;;;35.00;71.60;;;;;;6126657;23;20009;-84
2023/06/21 11:36:06;;;;;;;8.75;5.97;;;35.30;71.00;;;;;;6126939;23;20077;-84
2023/06/21 11:38:33;;;;;;;10.93;6.50;;;35.60;70.40;;;;;;6125669;23;20142;-84
2023/06/21 11:41:01;;;;;;;9.15;5.85;;;35.90;69.80;;;;;;6126659;23;20076;-84
2023/06/21 11:43:27;;;;;;;7.90;5.50;;;36.20;69.20;;;;;;6126472;23;20033;-84
2023/06/21 11:45:57;;;;;;;8.48;5.75;;;36.50;68.30;;;;;;6100223;23;20017;-83
2023/06/21 11:48:26;;;;;;;7.43;6.15;;;36.70;67.40;;;;;;6124658;23;20003;-83
2023/06/21 11:50:54;;;;;;;7.60;5.93;;;37.00;66.70;;;;;;6125890;23;19998;-83
2023/06/21 11:53:38;;;;;;;6.75;5.40;;;37.10;66.10;;;;;;6125858;23;20002;-83
2023/06/21 11:56:06;;;;;;;7.15;5.72;;;37.30;65.50;;;;;;6125482;23;20049;-83
2023/06/21 11:58:33;;;;;;;7.20;5.93;;;37.50;65.00;;;;;;6123683;23;20064;-83
2023/06/21 12:00:58;;;;;;;7.47;6.32;;;37.60;65.10;;;;;;6125532;23;20368;-84
2023/06/21 12:03:27;;;;;;;11.50;5.80;;;37.80;63.30;;;;;;6126484;23;20190;-83
2023/06/21 12:05:53;;;;;;;8.57;5.90;;;37.90;64.20;;;;;;6126610;23;20065;-83
2023/06/21 12:08:20;;;;;;;8.32;6.22;;;38.10;63.50;;;;;;6125984;23;20002;-83
2023/06/21 12:10:47;;;;;;;6.13;5.47;;;38.10;62.60;;;;;;6125965;23;19998;-84
2023/06/21 12:13:23;;;;;;;7.50;5.93;;;38.20;62.40;;;;;;6126203;23;20081;-84
2023/06/21 12:16:00;;;;;;;11.95;6.75;;;38.30;62.00;;;;;;6126759;23;20009;-84
2023/06/21 12:18:27;;;;;;;8.48;5.95;;;38.40;62.40;;;;;;6126295;23;20001;-84
2023/06/21 12:20:54;;;;;;;8.15;6.18;;;38.50;62.60;;;;;;6126806;23;20006;-84
2023/06/21 12:23:21;;;;;;;7.60;6.15;;;38.60;62.40;;;;;;6100352;23;20010;-83
2023/06/21 12:25:54;;;;;;;7.78;6.55;;;38.70;62.10;;;;;;6126531;23;20006;-84
2023/06/21 12:28:21;;;;;;;7.28;6.00;;;38.70;60.40;;;;;;6100134;23;20076;-82
2023/06/21 12:30:53;;;;;;;8.38;6.13;;;38.70;60.80;;;;;;6100003;23;20010;-83
2023/06/21 12:33:31;;;;;;;8.05;6.30;;;38.80;60.30;;;;;;6099154;23;20009;-83
2023/06/21 12:36:29;;;;;;;9.32;6.20;;;38.90;60.10;;;;;;6125273;23;20389;-83
2023/06/21 12:39:04;;;;;;;7.28;5.70;;;39.00;59.10;;;;;;6046678;23;20048;-83
2023/06/21 12:41:32;;;;;;;7.55;5.35;;;39.10;59.10;;;;;;6125960;23;20463;-84
2023/06/21 12:44:00;;;;;;;8.68;6.47;;;39.20;58.70;;;;;;6125725;23;20002;-84